Wheat Ridge, CO (80033)

11:16 PM MDT on September 14, 2014 (GMT -0600)
Crown Hill Park | Change Station
CLOSE
Current Station
Personal Weather Station
Location: Wheat Ridge, CO
Elevation: 5480 ft
Nearby Weather Stations

Elev 5480 ft 39.77 °N, 105.10 °W | Updated 13 minutes ago

Partly Cloudy
Partly Cloudy
65.3 °F
Feels Like 65.3 °F
N
0.0
Wind Variable Wind from South

Today
High -- | Low -- °F
--% Chance of Precip.
Yesterday
High -- | Low -- °F
Precip. -- in
6:40 AM 7:10 PM
Waning Gibbous, 59% visible
Pressure 30.13 in
Visibility 20.0 miles
Clouds Scattered Clouds 8000 ft
Dew Point 45 °F
Humidity 48%
Rainfall 0.00 in
Snow Depth 1 in , 0 in , 9 in
UV 0 out of 12
Pollen 7.60 out of 12
Ozone Good
PM2.5 Good
Flu Activity Not available.
METAR KBJC 150346Z 24006KT 20SM SCT080 18/04 A3013 RMK LAST

More Conditions Fewer Conditions

Pressure 30.13 in
Visibility 20.0 miles
Clouds Scattered Clouds 8000 ft
Dew Point 45 °F
Humidity 48%
Rainfall 0.00 in
Snow Depth 1 in , 0 in , 9 in
UV 0 out of 12
Pollen 7.60 out of 12
Ozone Good
PM2.5 Good
Flu Activity Not available.
METAR KBJC 150346Z 24006KT 20SM SCT080 18/04 A3013 RMK LAST

More Conditions Fewer Conditions

10-Day Weather Forecast

Almanac

Astronomy

Sep. 14, 2014 Rise Set
Actual Time 6:40 AM MDT 7:10 PM MDT
Civil Twilight 6:13 AM MDT 7:37 PM MDT
Nautical Twilight 5:41 AM MDT 8:09 PM MDT
Astronomical Twilight 5:08 AM MDT 8:42 PM MDT
Moon 11:06 PM MDT (9/14) 12:48 PM MDT (9/14)
Length of Visible Light 13h 24m
Length of Day
12h 29m
Tomorrow will be 2m 35s shorter.
Waning Gibbous, 59% of the Moon is Illuminated
Sep 15
Waning Gibbous
Sep 15
Last Quarter
Sep 24
New
Oct 1
First Quarter
Oct 8
Full

Yesterday's Extremes

State Highs State Lows

Community

WunderPhotos

Upload Photos

1,753,411 photos uploaded!

Nearby

Air Quality

  Air Quality AQ Index Pollutant
Yesterday Good
OZONE
Yesterday Good
PM10
Current Good
OZONE
Current Good
PM2.5
Sunday Good
OZONE
Sunday Good
PM2.5
Monday Good
OZONE
Monday Good
PM2.5

Snow Depth

Station Depth Elevation
Arapaho Ridge 1 in 10960 ft
Zirkel 0 in 9340 ft
Rawah 9 in 9020 ft
Lone Cone 9 in 9600 ft
Columbine Pass 0 in 9400 ft

Earthquake Activity

City Distance Mag. Time & Date
No recent earthquake activity has been reported nearby.
Minimum magnitude displayed is 2.5.

Coastal Water Temperatures

Place Temperature
No Stations Reporting

Nearby Weather Stations